createdAt,value
2022-10-15T00:00:49.022Z,100654.06
2022-10-15T00:03:16.026Z,100649.22
2022-10-15T00:05:42.861Z,100616.97
2022-10-15T00:08:10.991Z,100628.63
2022-10-15T00:10:38.393Z,100635.44
2022-10-15T00:13:05.719Z,100627.63
2022-10-15T00:15:32.805Z,100598.16
2022-10-15T00:17:59.526Z,100618.28
2022-10-15T00:20:26.234Z,100606.16
2022-10-15T00:22:53.057Z,100608.31
2022-10-15T00:25:19.804Z,100619.97
2022-10-15T00:27:46.668Z,100613.63
2022-10-15T00:30:13.733Z,100602.66
2022-10-15T00:32:40.541Z,100599.69
2022-10-15T00:35:07.762Z,100608.31
2022-10-15T00:37:34.933Z,100612.78
2022-10-15T00:42:29.281Z,100586.34
2022-10-15T00:44:59.022Z,100598.31
2022-10-15T00:47:30.738Z,100605.31
2022-10-15T00:50:25.216Z,100583.34
2022-10-15T00:52:57.820Z,100602.31
2022-10-15T00:55:27.701Z,100595.84
2022-10-15T00:57:56.253Z,100602.97
2022-10-15T01:00:23.120Z,100601.31
2022-10-15T01:02:50.096Z,100573.88
2022-10-15T01:05:18.697Z,100596.84
2022-10-15T01:07:45.406Z,100602.66
2022-10-15T01:10:12.919Z,100580.53
2022-10-15T01:12:48.908Z,100592.16
2022-10-15T01:15:42.736Z,100583.88
2022-10-15T01:18:15.879Z,100576.03
2022-10-15T01:20:42.619Z,100588.53
2022-10-15T01:23:30.325Z,100578.72
2022-10-15T01:26:25.530Z,100572.19
2022-10-15T01:29:27.340Z,100552.91
2022-10-15T01:32:03.928Z,100559.72
2022-10-15T01:34:33.593Z,100566.56
2022-10-15T01:37:07.596Z,100566.22
2022-10-15T01:39:41.869Z,100563.25
2022-10-15T01:42:23.719Z,100547.25
2022-10-15T01:45:03.513Z,100501.88
2022-10-15T01:47:45.194Z,100559.41
2022-10-15T01:50:15.311Z,100546.63
2022-10-15T01:52:43.699Z,100556.56
2022-10-15T01:55:14.395Z,100549.63
2022-10-15T01:57:44.264Z,100546.47
2022-10-15T02:00:11.898Z,100547.41
2022-10-15T02:02:38.921Z,100519.75
2022-10-15T02:05:10.566Z,100526.06
2022-10-15T02:08:01.704Z,100531.88
2022-10-15T02:10:40.007Z,100531.00
2022-10-15T02:13:37.333Z,100524.19
2022-10-15T02:16:14.248Z,100503.94
2022-10-15T02:18:56.186Z,100507.28
2022-10-15T02:21:35.841Z,100490.00
2022-10-15T02:24:22.908Z,100516.44
2022-10-15T02:26:53.884Z,100494.16
2022-10-15T02:29:24.166Z,100510.31
2022-10-15T02:31:52.619Z,100489.69
2022-10-15T02:34:22.668Z,100508.53
2022-10-15T02:36:49.925Z,100504.53
2022-10-15T02:39:22.039Z,100496.22
2022-10-15T02:41:49.245Z,100493.53
2022-10-15T02:44:16.181Z,100476.91
2022-10-15T02:46:43.084Z,100503.38
2022-10-15T02:49:09.783Z,100494.75
2022-10-15T02:51:37.424Z,100484.56
2022-10-15T02:54:05.655Z,100484.69
2022-10-15T02:56:32.453Z,100486.22
2022-10-15T02:58:59.421Z,100477.06
2022-10-15T03:01:26.187Z,100480.06
2022-10-15T03:03:53.052Z,100483.53
2022-10-15T03:06:19.821Z,100465.72
2022-10-15T03:08:46.496Z,100453.78
2022-10-15T03:11:13.289Z,100438.16
2022-10-15T03:13:41.244Z,100466.94
2022-10-15T03:16:09.784Z,100438.19
2022-10-15T03:18:39.850Z,100439.84
2022-10-15T03:21:08.067Z,100453.97
2022-10-15T03:23:34.977Z,100415.44
2022-10-15T03:26:01.903Z,100438.38
2022-10-15T03:28:28.731Z,100436.69
2022-10-15T03:30:55.520Z,100449.97
2022-10-15T03:33:24.463Z,100448.75
2022-10-15T03:35:52.980Z,100413.50
2022-10-15T03:38:19.979Z,100426.94
2022-10-15T03:40:46.781Z,100441.72
2022-10-15T03:43:13.747Z,100440.19
2022-10-15T03:45:40.790Z,100423.22
2022-10-15T03:48:07.743Z,100439.25
2022-10-15T03:50:35.108Z,100443.94
2022-10-15T03:53:05.824Z,100436.97
2022-10-15T03:55:33.330Z,100430.84
2022-10-15T03:58:00.428Z,100428.19
2022-10-15T04:00:27.343Z,100425.53
2022-10-15T04:02:54.064Z,100427.50
2022-10-15T04:05:21.161Z,100416.69
2022-10-15T04:07:47.833Z,100434.25
2022-10-15T04:10:14.650Z,100399.31
2022-10-15T04:12:41.791Z,100412.53
2022-10-15T04:15:08.951Z,100382.91
2022-10-15T04:17:35.700Z,100414.66
2022-10-15T04:20:03.063Z,100402.47
2022-10-15T04:22:29.811Z,100421.91
2022-10-15T04:24:56.484Z,100400.94
2022-10-15T04:27:23.313Z,100428.56
2022-10-15T04:29:50.045Z,100407.47
2022-10-15T04:32:16.946Z,100401.00
2022-10-15T04:34:45.865Z,100413.09
2022-10-15T04:37:12.641Z,100406.47
2022-10-15T04:39:39.403Z,100427.00
2022-10-15T04:42:06.267Z,100412.66
2022-10-15T04:44:33.035Z,100415.13
2022-10-15T04:47:00.968Z,100410.09
2022-10-15T04:49:27.776Z,100399.38
2022-10-15T04:51:54.733Z,100409.19
2022-10-15T04:54:21.480Z,100286.22
2022-10-15T04:56:48.345Z,100400.28
2022-10-15T04:59:15.178Z,100390.25
2022-10-15T05:01:41.893Z,100396.50
2022-10-15T05:04:12.399Z,100399.31
2022-10-15T05:06:39.213Z,100393.72
2022-10-15T05:09:05.931Z,100377.41
2022-10-15T05:11:36.814Z,100379.88
2022-10-15T05:14:04.228Z,100390.06
2022-10-15T05:16:31.504Z,100388.91
2022-10-15T05:19:04.213Z,100395.75
2022-10-15T05:21:31.973Z,100397.66
2022-10-15T05:23:59.739Z,100392.03
2022-10-15T05:26:28.167Z,100376.06
2022-10-15T05:28:57.939Z,100397.53
2022-10-15T05:31:28.712Z,100390.25
2022-10-15T05:33:56.087Z,100382.00
2022-10-15T05:36:24.302Z,100404.94
2022-10-15T05:38:53.767Z,100398.31
2022-10-15T05:41:21.909Z,100389.09
2022-10-15T05:43:50.987Z,100377.16
2022-10-15T05:46:19.280Z,100393.06
2022-10-15T05:48:50.375Z,100374.94
2022-10-15T05:51:17.735Z,100397.41
2022-10-15T05:53:46.468Z,100380.97
2022-10-15T05:56:16.360Z,100373.47
2022-10-15T05:58:43.296Z,100392.66
2022-10-15T06:01:12.947Z,100384.97
2022-10-15T06:03:41.428Z,100347.22
2022-10-15T06:06:27.246Z,100369.31
2022-10-15T06:08:54.817Z,100387.22
2022-10-15T06:11:21.812Z,100368.59
2022-10-15T06:13:48.684Z,100385.25
2022-10-15T06:16:20.857Z,100376.84
2022-10-15T06:18:52.620Z,100362.41
2022-10-15T06:21:19.351Z,100384.19
2022-10-15T06:23:46.052Z,100344.50
2022-10-15T06:26:12.969Z,100366.56
2022-10-15T06:28:40.062Z,100368.63
2022-10-15T06:31:07.623Z,100359.69
2022-10-15T06:33:35.521Z,100360.19
2022-10-15T06:36:08.322Z,100351.06
2022-10-15T06:38:35.186Z,100339.00
2022-10-15T06:41:05.888Z,100359.91
2022-10-15T06:43:35.169Z,100352.41
2022-10-15T06:46:04.185Z,100350.44
2022-10-15T06:48:31.241Z,100297.06
2022-10-15T06:50:59.468Z,100304.00
2022-10-15T06:53:26.247Z,100314.09
2022-10-15T06:55:57.223Z,100332.19
2022-10-15T06:58:24.194Z,100324.56
2022-10-15T07:00:50.906Z,100305.94
2022-10-15T07:03:17.845Z,100308.84
2022-10-15T07:05:44.664Z,100338.59
2022-10-15T07:08:15.508Z,100340.47
2022-10-15T07:10:45.966Z,100348.53
2022-10-15T07:13:12.701Z,100341.75
2022-10-15T07:15:39.496Z,100354.13
2022-10-15T07:18:06.405Z,100349.94
2022-10-15T07:20:33.772Z,100352.22
2022-10-15T07:23:02.354Z,100335.59
2022-10-15T07:25:29.634Z,100337.94
2022-10-15T07:27:57.352Z,100338.78
2022-10-15T07:30:27.719Z,100343.31
2022-10-15T07:32:58.577Z,100324.69
2022-10-15T07:35:26.805Z,100345.84
2022-10-15T07:37:53.787Z,100333.34
2022-10-15T07:40:20.744Z,100342.94
2022-10-15T07:42:57.670Z,100341.41
2022-10-15T07:45:25.464Z,100343.78
2022-10-15T07:47:52.943Z,100368.19
2022-10-15T07:50:20.737Z,100342.13
2022-10-15T07:52:48.236Z,100360.78
2022-10-15T07:55:14.977Z,100351.03
2022-10-15T07:57:41.716Z,100325.22
2022-10-15T08:00:09.207Z,100322.84
2022-10-15T08:02:35.928Z,100338.75
2022-10-15T08:05:02.648Z,100356.53
2022-10-15T08:07:29.720Z,100359.03
2022-10-15T08:09:56.471Z,100334.94
2022-10-15T08:12:23.380Z,100352.03
2022-10-15T08:14:50.451Z,100297.53
2022-10-15T08:17:17.164Z,100370.66
2022-10-15T08:19:44.157Z,100349.63
2022-10-15T08:22:12.610Z,100334.19
2022-10-15T08:24:39.319Z,100351.28
2022-10-15T08:27:06.042Z,100338.03
2022-10-15T08:29:33.000Z,100356.28
2022-10-15T08:31:59.748Z,100347.94
2022-10-15T08:34:26.749Z,100365.28
2022-10-15T08:36:53.659Z,100368.06
2022-10-15T08:39:20.338Z,100363.72
2022-10-15T08:41:57.388Z,100339.28
2022-10-15T08:44:29.854Z,100369.53
2022-10-15T08:47:08.452Z,100374.06
2022-10-15T08:49:49.184Z,100365.84
2022-10-15T08:52:26.792Z,100366.50
2022-10-15T08:54:56.473Z,100346.28
2022-10-15T08:57:46.180Z,100346.47
2022-10-15T09:00:22.288Z,100356.16
2022-10-15T09:02:59.135Z,100384.22
2022-10-15T09:05:29.840Z,100384.66
2022-10-15T09:08:31.211Z,100388.53
2022-10-15T09:11:03.297Z,100390.72
2022-10-15T09:13:42.547Z,100383.38
2022-10-15T09:16:29.406Z,100359.25
2022-10-15T09:18:59.052Z,100370.19
2022-10-15T09:21:26.872Z,100379.84
2022-10-15T09:24:01.656Z,100391.00
2022-10-15T09:26:32.944Z,100390.31
2022-10-15T09:29:16.716Z,100379.97
2022-10-15T09:32:06.531Z,100323.91
2022-10-15T09:34:51.037Z,100346.28
2022-10-15T09:37:36.547Z,100368.53
2022-10-15T09:40:15.500Z,100367.84
2022-10-15T09:42:44.834Z,100367.47
2022-10-15T09:45:14.809Z,100372.91
2022-10-15T09:47:42.218Z,100372.97
2022-10-15T09:50:12.497Z,100361.78
2022-10-15T09:52:56.114Z,100373.91
2022-10-15T09:55:38.309Z,100373.81
2022-10-15T09:58:28.224Z,100385.28
2022-10-15T10:01:02.696Z,100386.97
2022-10-15T10:03:32.584Z,100385.56
2022-10-15T10:06:02.764Z,100372.72
2022-10-15T10:08:34.551Z,100360.16
2022-10-15T10:11:03.379Z,100390.88
2022-10-15T10:13:40.299Z,100370.28
2022-10-15T10:16:12.020Z,100369.19
2022-10-15T10:18:39.994Z,100386.38
2022-10-15T10:21:21.789Z,100379.75
2022-10-15T10:23:48.684Z,100369.25
2022-10-15T10:26:15.633Z,100379.09
2022-10-15T10:28:53.729Z,100368.25
2022-10-15T10:31:33.444Z,100374.94
2022-10-15T10:34:04.128Z,100374.53
2022-10-15T10:36:34.608Z,100388.47
2022-10-15T10:39:10.665Z,100373.97
2022-10-15T10:42:01.428Z,100373.91
2022-10-15T10:44:32.563Z,100373.47
2022-10-15T10:47:10.555Z,100369.50
2022-10-15T10:49:39.180Z,100372.94
2022-10-15T10:52:07.043Z,100369.75
2022-10-15T10:54:34.658Z,100376.38
2022-10-15T10:57:01.876Z,100377.78
2022-10-15T10:59:37.117Z,100370.31
2022-10-15T11:02:06.669Z,100356.44
2022-10-15T11:04:36.692Z,100355.97
2022-10-15T11:07:13.593Z,100359.53
2022-10-15T11:09:52.367Z,100365.78
2022-10-15T11:12:25.973Z,100371.06
2022-10-15T11:14:52.487Z,100370.44
2022-10-15T11:18:00.783Z,100360.91
2022-10-15T11:20:48.295Z,100364.66
2022-10-15T11:23:38.458Z,100366.44
2022-10-15T11:26:23.371Z,100355.59
2022-10-15T11:29:20.888Z,100374.59
2022-10-15T11:32:02.708Z,100372.56
2022-10-15T11:35:04.119Z,100356.94
2022-10-15T11:37:48.904Z,100370.81
2022-10-15T11:40:45.156Z,100368.44
2022-10-15T11:43:25.055Z,100350.09
2022-10-15T11:45:51.733Z,100363.13
2022-10-15T11:48:53.090Z,100359.59
2022-10-15T11:51:19.857Z,100363.47
2022-10-15T11:53:49.181Z,100367.97
2022-10-15T11:56:19.963Z,100356.50
2022-10-15T11:58:54.774Z,100352.94
2022-10-15T12:01:31.669Z,100344.44
2022-10-15T12:04:03.927Z,100351.56
2022-10-15T12:06:36.286Z,100348.34
2022-10-15T12:09:05.560Z,100345.50
2022-10-15T12:11:53.915Z,100327.44
2022-10-15T12:14:44.573Z,100347.16
2022-10-15T12:17:11.281Z,100352.47
2022-10-15T12:19:47.182Z,100337.84
2022-10-15T12:22:34.139Z,100334.50
2022-10-15T12:25:01.917Z,100320.56
2022-10-15T12:27:34.810Z,100325.53
2022-10-15T12:30:04.324Z,100321.63
2022-10-15T12:32:48.940Z,100310.38
2022-10-15T12:35:15.781Z,100328.63
2022-10-15T12:37:46.060Z,100304.25
2022-10-15T12:40:28.478Z,100307.56
2022-10-15T12:43:05.356Z,100286.28
2022-10-15T12:45:51.016Z,100289.22
2022-10-15T12:48:29.997Z,100295.22
2022-10-15T12:51:21.649Z,100296.69
2022-10-15T12:53:50.005Z,100272.56
2022-10-15T12:56:16.624Z,100297.16
2022-10-15T12:58:46.597Z,100256.72
2022-10-15T13:01:13.307Z,100288.66
2022-10-15T13:03:52.413Z,100277.28
2022-10-15T13:06:24.667Z,100273.38
2022-10-15T13:09:00.341Z,100271.25
2022-10-15T13:11:45.203Z,100266.19
2022-10-15T13:14:12.070Z,100281.03
2022-10-15T13:16:44.772Z,100266.34
2022-10-15T13:19:24.185Z,100261.53
2022-10-15T13:21:54.668Z,100252.41
2022-10-15T13:24:24.172Z,100227.59
2022-10-15T13:26:51.742Z,100226.56
2022-10-15T13:29:21.306Z,100248.44
2022-10-15T13:31:48.988Z,100247.38
2022-10-15T13:34:33.674Z,100229.66
2022-10-15T13:37:03.439Z,100236.41
2022-10-15T13:42:25.675Z,100237.13
2022-10-15T13:45:16.870Z,100222.69
2022-10-15T13:47:49.049Z,100235.22
2022-10-15T13:50:21.644Z,100233.06
2022-10-15T13:52:50.943Z,100223.38
2022-10-15T13:55:29.731Z,100230.00
2022-10-15T13:58:03.650Z,100222.53
2022-10-15T14:00:33.784Z,100217.53
2022-10-15T14:03:31.136Z,100218.25
2022-10-15T14:06:10.273Z,100200.75
2022-10-15T14:08:37.453Z,100209.75
2022-10-15T14:11:04.278Z,100191.69
2022-10-15T14:13:31.027Z,100201.94
2022-10-15T14:16:20.892Z,100189.53
2022-10-15T14:18:51.429Z,100206.81
2022-10-15T14:21:22.350Z,100201.75
2022-10-15T14:23:50.182Z,100192.03
2022-10-15T14:26:24.680Z,100182.88
2022-10-15T14:28:52.432Z,100191.59
2022-10-15T14:31:32.096Z,100197.91
2022-10-15T14:33:58.821Z,100174.59
2022-10-15T14:36:29.687Z,100187.78
2022-10-15T14:39:34.310Z,100179.56
2022-10-15T14:42:27.101Z,100181.53
2022-10-15T14:44:54.023Z,100161.31
2022-10-15T14:47:30.613Z,100171.63
2022-10-15T14:50:00.815Z,100177.28
2022-10-15T14:52:30.679Z,100175.84
2022-10-15T14:55:15.503Z,100171.00
2022-10-15T14:57:45.017Z,100160.53
2022-10-15T15:00:17.731Z,100158.38
2022-10-15T15:02:44.561Z,100105.81
2022-10-15T15:05:11.346Z,100167.34
2022-10-15T15:07:39.568Z,100153.31
2022-10-15T15:10:08.885Z,100147.44
2022-10-15T15:12:38.644Z,100124.66
2022-10-15T15:15:14.165Z,100143.13
2022-10-15T15:17:40.863Z,100154.47
2022-10-15T15:20:08.067Z,100121.13
2022-10-15T15:22:36.361Z,100150.38
2022-10-15T15:25:10.781Z,100148.66
2022-10-15T15:27:37.814Z,100159.13
2022-10-15T15:30:06.847Z,100159.19
2022-10-15T15:32:34.104Z,100170.75
2022-10-15T15:35:01.155Z,100159.19
2022-10-15T15:37:30.365Z,100157.56
2022-10-15T15:39:57.077Z,100158.75
2022-10-15T15:42:25.782Z,100150.03
2022-10-15T15:44:52.655Z,100159.31
2022-10-15T15:47:19.356Z,100156.75
2022-10-15T15:49:46.112Z,100144.63
2022-10-15T15:52:14.467Z,100146.00
2022-10-15T15:54:41.620Z,100146.56
2022-10-15T15:57:08.589Z,100161.97
2022-10-15T15:59:35.397Z,100161.97
2022-10-15T16:02:02.209Z,100166.78
2022-10-15T16:04:29.092Z,100140.09
2022-10-15T16:06:55.867Z,100119.34
2022-10-15T16:09:23.634Z,100166.94
2022-10-15T16:11:51.189Z,100149.63
2022-10-15T16:14:18.053Z,100174.47
2022-10-15T16:16:44.796Z,100163.38
2022-10-15T16:19:11.771Z,100156.81
2022-10-15T16:21:40.873Z,100167.03
2022-10-15T16:24:07.918Z,100157.84
2022-10-15T16:26:34.887Z,100151.97
2022-10-15T16:29:01.712Z,100123.38
2022-10-15T16:31:30.411Z,100166.47
2022-10-15T16:33:57.636Z,100165.91
2022-10-15T16:36:24.584Z,100154.47
2022-10-15T16:38:51.625Z,100168.88
2022-10-15T16:41:21.389Z,100165.31
2022-10-15T16:43:48.976Z,100110.38
2022-10-15T16:46:19.585Z,100163.69
2022-10-15T16:48:46.783Z,100162.06
2022-10-15T16:51:16.270Z,100162.06
2022-10-15T16:53:44.431Z,100160.38
2022-10-15T16:56:22.775Z,100135.28
2022-10-15T16:58:50.136Z,100168.81
2022-10-15T17:01:20.838Z,100148.59
2022-10-15T17:03:48.386Z,100158.50
2022-10-15T17:06:22.821Z,100141.56
2022-10-15T17:08:54.625Z,100132.09
2022-10-15T17:11:30.028Z,100130.06
2022-10-15T17:13:59.395Z,100155.47
2022-10-15T17:16:33.097Z,100161.13
2022-10-15T17:19:00.394Z,100165.72
2022-10-15T17:21:29.458Z,100151.06
2022-10-15T17:23:58.859Z,100140.50
2022-10-15T17:26:28.832Z,100162.03
2022-10-15T17:28:55.927Z,100160.44
2022-10-15T17:31:25.071Z,100169.03
2022-10-15T17:34:00.983Z,100161.31
2022-10-15T17:36:30.116Z,100164.44
2022-10-15T17:39:00.211Z,100171.59
2022-10-15T17:41:30.031Z,100171.59
2022-10-15T17:43:57.745Z,100152.91
2022-10-15T17:46:27.722Z,100162.38
2022-10-15T17:48:54.961Z,100175.56
2022-10-15T17:51:25.228Z,100165.88
2022-10-15T17:53:53.329Z,100142.84
2022-10-15T17:56:28.876Z,100178.88
2022-10-15T17:58:56.604Z,100180.59
2022-10-15T18:01:45.843Z,100176.88
2022-10-15T18:04:16.035Z,100180.53
2022-10-15T18:06:45.114Z,100179.59
2022-10-15T18:09:12.121Z,100180.78
2022-10-15T18:11:38.901Z,100168.97
2022-10-15T18:14:05.937Z,100157.88
2022-10-15T18:16:32.936Z,100172.31
2022-10-15T18:18:59.932Z,100178.47
2022-10-15T18:21:28.480Z,100179.88
2022-10-15T18:23:58.414Z,100187.78
2022-10-15T18:26:25.072Z,100182.44
2022-10-15T18:28:53.818Z,100188.22
2022-10-15T18:31:21.733Z,100184.56
2022-10-15T18:33:52.114Z,100178.47
2022-10-15T18:36:22.217Z,100164.25
2022-10-15T18:38:49.561Z,100192.81
2022-10-15T18:41:33.395Z,100187.81
2022-10-15T18:44:02.845Z,100195.13
2022-10-15T18:46:31.189Z,100186.88
2022-10-15T18:48:58.655Z,100197.00
2022-10-15T18:51:25.689Z,100188.94
2022-10-15T18:53:53.387Z,100187.47
2022-10-15T18:56:20.984Z,100182.88
2022-10-15T18:58:48.377Z,100184.19
2022-10-15T19:01:39.283Z,100187.84
2022-10-15T19:04:09.348Z,100185.75
2022-10-15T19:06:37.772Z,100188.06
2022-10-15T19:09:07.495Z,100188.06
2022-10-15T19:11:35.145Z,100194.63
2022-10-15T19:14:02.001Z,100132.34
2022-10-15T19:16:29.132Z,100192.53
2022-10-15T19:18:56.359Z,100190.22
2022-10-15T19:21:23.068Z,100200.88
2022-10-15T19:23:49.940Z,100205.97
2022-10-15T19:26:16.774Z,100206.34
2022-10-15T19:28:43.932Z,100197.00
2022-10-15T19:31:18.180Z,100202.13
2022-10-15T19:33:44.881Z,100206.13
2022-10-15T19:36:11.746Z,100210.66
2022-10-15T19:38:38.752Z,100209.63
2022-10-15T19:41:05.624Z,100199.50
2022-10-15T19:43:32.386Z,100179.91
2022-10-15T19:46:04.073Z,100200.81
2022-10-15T19:48:31.169Z,100177.28
2022-10-15T19:51:01.781Z,100181.56
2022-10-15T19:53:28.696Z,100207.50
2022-10-15T19:55:57.644Z,100183.91
2022-10-15T19:58:25.058Z,100177.47
2022-10-15T20:00:54.075Z,100190.53
2022-10-15T20:03:21.848Z,100195.03
2022-10-15T20:05:49.210Z,100192.53
2022-10-15T20:08:16.268Z,100202.63
2022-10-15T20:10:47.180Z,100169.97
2022-10-15T20:13:15.899Z,100187.50
2022-10-15T20:15:43.913Z,100199.97
2022-10-15T20:18:11.943Z,100173.97
2022-10-15T20:20:41.277Z,100171.00
2022-10-15T20:23:08.223Z,100189.03
2022-10-15T20:25:38.144Z,100198.19
2022-10-15T20:28:04.832Z,100204.88
2022-10-15T20:30:31.888Z,100203.16
2022-10-15T20:32:58.861Z,100219.69
2022-10-15T20:35:25.673Z,100211.19
2022-10-15T20:37:52.398Z,100212.84
2022-10-15T20:40:19.189Z,100193.97
2022-10-15T20:42:45.994Z,100201.06
2022-10-15T20:45:14.682Z,100180.28
2022-10-15T20:47:45.370Z,100199.50
2022-10-15T20:50:16.881Z,100203.50
2022-10-15T20:52:43.756Z,100196.84
2022-10-15T20:55:11.112Z,100203.16
2022-10-15T20:57:38.573Z,100197.84
2022-10-15T21:00:08.057Z,100194.03
2022-10-15T21:02:35.321Z,100194.56
2022-10-15T21:05:02.592Z,100180.00
2022-10-15T21:07:29.422Z,100179.19
2022-10-15T21:09:56.216Z,100206.38
2022-10-15T21:12:23.252Z,100213.13
2022-10-15T21:14:50.132Z,100191.97
2022-10-15T21:17:16.861Z,100197.63
2022-10-15T21:19:43.739Z,100187.47
2022-10-15T21:22:10.481Z,100198.53
2022-10-15T21:24:38.376Z,100203.69
2022-10-15T21:27:05.403Z,100181.97
2022-10-15T21:29:32.119Z,100196.56
2022-10-15T21:31:58.837Z,100194.25
2022-10-15T21:34:27.911Z,100211.00
2022-10-15T21:36:55.359Z,100198.41
2022-10-15T21:39:22.466Z,100187.75
2022-10-15T21:41:49.434Z,100151.44
2022-10-15T21:44:16.254Z,100194.53
2022-10-15T21:46:43.551Z,100200.31
2022-10-15T21:49:10.550Z,100202.47
2022-10-15T21:51:38.222Z,100191.34
2022-10-15T21:54:06.055Z,100142.50
2022-10-15T21:56:33.873Z,100198.81
2022-10-15T21:59:00.992Z,100182.94
2022-10-15T22:01:33.194Z,100197.63
2022-10-15T22:04:02.916Z,100207.09
2022-10-15T22:06:29.824Z,100187.22
2022-10-15T22:08:56.532Z,100189.03
2022-10-15T22:13:59.201Z,100190.94
2022-10-15T22:16:28.228Z,100211.38
2022-10-15T22:18:56.701Z,100192.91
2022-10-15T22:21:29.498Z,100142.41
2022-10-15T22:23:59.160Z,100189.84
2022-10-15T22:26:32.703Z,100184.69
2022-10-15T22:29:01.332Z,100188.75
2022-10-15T22:31:28.956Z,100199.38
2022-10-15T22:33:58.192Z,100197.47
2022-10-15T22:36:27.663Z,100187.44
2022-10-15T22:39:05.284Z,100162.88
2022-10-15T22:41:39.811Z,100153.78
2022-10-15T22:44:11.593Z,100182.28
2022-10-15T22:46:39.660Z,100169.19
2022-10-15T22:49:08.357Z,100178.91
2022-10-15T22:51:35.577Z,100150.75
2022-10-15T22:54:02.481Z,100169.78
2022-10-15T22:56:29.798Z,100185.03
2022-10-15T22:58:58.461Z,100173.88
2022-10-15T23:01:27.727Z,100174.91
2022-10-15T23:04:01.703Z,100162.13
2022-10-15T23:06:29.501Z,100181.91
2022-10-15T23:08:57.032Z,100167.22
2022-10-15T23:11:32.632Z,100147.00
2022-10-15T23:14:05.893Z,100174.25
2022-10-15T23:16:35.365Z,100170.72
2022-10-15T23:19:06.189Z,100158.31
2022-10-15T23:21:35.798Z,100174.94
2022-10-15T23:24:02.937Z,100169.97
2022-10-15T23:26:30.110Z,100172.44
2022-10-15T23:28:58.832Z,100160.38
2022-10-15T23:31:28.037Z,100175.13
2022-10-15T23:33:56.650Z,100173.00
2022-10-15T23:36:25.547Z,100176.03
2022-10-15T23:38:54.897Z,100160.06
2022-10-15T23:41:22.115Z,100167.56
2022-10-15T23:43:48.968Z,100158.56
2022-10-15T23:46:16.068Z,100148.34
2022-10-15T23:48:42.934Z,100176.03
2022-10-15T23:51:20.984Z,100148.16
2022-10-15T23:53:48.102Z,100148.00
2022-10-15T23:56:15.756Z,100150.31
2022-10-15T23:58:43.058Z,100115.72
